Time;durP1;ratioP1;P1;durP2;ratioP2;P2;SDS_P1;SDS_P2;PMS_P1;PMS_P2;Temp;Humidity;BMP_temperature;BMP_pressure;BME280_temperature;BME280_humidity;BME280_pressure;Samples;Min_cycle;Max_cycle;Signal;HPM_P1;HPM_P2
2023/06/02 00:00:39;;;;;;;0.20;0.15;;;9.90;99.90;;;;;;5127717;27;20039;-77
2023/06/02 00:03:05;;;;;;;3.50;0.75;;;9.90;99.90;;;;;;5127707;27;20046;-76
2023/06/02 00:05:31;;;;;;;0.10;0.10;;;10.00;99.90;;;;;;5127806;27;20039;-76
2023/06/02 00:07:57;;;;;;;0.28;0.22;;;9.90;99.90;;;;;;5127641;27;20103;-76
2023/06/02 00:10:23;;;;;;;0.47;0.43;;;9.90;99.90;;;;;;5127132;27;20088;-76
2023/06/02 00:12:48;;;;;;;0.20;0.08;;;9.80;1.00;;;;;;5127213;27;20620;-77
2023/06/02 00:15:14;;;;;;;0.00;0.00;;;9.80;1.00;;;;;;5127186;27;20148;-76
2023/06/02 00:17:40;;;;;;;0.10;0.10;;;9.90;1.00;;;;;;5127073;27;20043;-77
2023/06/02 00:20:06;;;;;;;0.00;0.00;;;9.80;1.00;;;;;;5127176;27;20047;-77
2023/06/02 00:22:32;;;;;;;0.47;0.32;;;9.90;99.90;;;;;;5126898;27;20039;-76
2023/06/02 00:24:58;;;;;;;0.52;0.52;;;9.90;1.00;;;;;;5127330;27;20050;-76
2023/06/02 00:27:23;;;;;;;3.83;1.02;;;9.90;1.00;;;;;;5126896;27;20047;-76
2023/06/02 00:29:50;;;;;;;0.00;0.00;;;9.80;1.00;;;;;;5126826;27;20577;-77
2023/06/02 00:32:16;;;;;;;0.00;0.00;;;9.80;1.00;;;;;;5127037;27;20053;-77
2023/06/02 00:34:41;;;;;;;0.25;0.20;;;9.80;1.00;;;;;;5126635;27;20050;-76
2023/06/02 00:37:07;;;;;;;1.98;1.08;;;9.80;1.00;;;;;;5126621;27;20062;-76
2023/06/02 00:39:32;;;;;;;0.00;0.00;;;9.80;6.80;;;;;;5108709;27;20065;-76
2023/06/02 00:41:59;;;;;;;0.00;0.00;;;9.80;42.60;;;;;;5127049;27;20047;-76
2023/06/02 00:44:25;;;;;;;0.40;0.20;;;9.70;19.90;;;;;;5126700;27;20058;-76
2023/06/02 00:46:51;;;;;;;4.38;1.17;;;9.70;99.90;;;;;;5127016;27;20409;-77
2023/06/02 00:49:17;;;;;;;0.10;0.10;;;9.60;99.90;;;;;;5126516;27;20050;-76
2023/06/02 00:51:45;;;;;;;1.45;0.50;;;9.60;99.90;;;;;;5125715;27;20043;-77
2023/06/02 00:54:13;;;;;;;0.22;0.22;;;9.60;99.90;;;;;;5126376;27;20050;-76
2023/06/02 00:56:39;;;;;;;0.00;0.00;;;9.60;99.90;;;;;;5126602;27;20560;-76
2023/06/02 00:59:05;;;;;;;3.13;0.73;;;9.50;99.90;;;;;;5126370;27;20043;-76
2023/06/02 01:01:32;;;;;;;0.00;0.00;;;9.50;1.00;;;;;;5126684;27;20041;-76
2023/06/02 01:03:58;;;;;;;0.47;0.38;;;9.40;99.90;;;;;;5126474;27;20051;-76
2023/06/02 01:06:34;;;;;;;0.20;0.20;;;9.30;99.90;;;;;;5126250;27;20095;-76
2023/06/02 01:09:03;;;;;;;0.00;0.00;;;9.30;99.90;;;;;;5126216;27;20394;-76
2023/06/02 01:11:28;;;;;;;3.00;0.73;;;9.20;99.90;;;;;;5126098;27;20050;-78
2023/06/02 01:13:54;;;;;;;0.00;0.00;;;9.00;1.00;;;;;;5126302;27;20047;-76
2023/06/02 01:16:20;;;;;;;0.88;0.22;;;8.90;1.00;;;;;;5126353;27;20092;-76
2023/06/02 01:18:49;;;;;;;0.00;0.00;;;8.90;99.90;;;;;;5126823;27;20058;-75
2023/06/02 01:21:22;;;;;;;3.30;1.17;;;8.80;99.90;;;;;;5126084;27;20082;-76
2023/06/02 01:23:51;;;;;;;7.78;0.35;;;8.90;99.90;;;;;;5126255;27;20092;-76
2023/06/02 01:26:17;;;;;;;0.98;0.68;;;8.90;99.90;;;;;;5125828;27;20051;-77
2023/06/02 01:28:42;;;;;;;0.00;0.00;;;8.90;1.00;;;;;;5125652;27;20054;-76
2023/06/02 01:31:16;;;;;;;2.45;1.33;;;8.90;1.00;;;;;;5126093;27;20046;-76
2023/06/02 01:33:58;;;;;;;0.00;0.00;;;9.00;1.00;;;;;;5125656;27;20074;-76
2023/06/02 01:36:28;;;;;;;0.13;0.13;;;9.00;1.00;;;;;;5126125;27;20492;-76
2023/06/02 01:38:57;;;;;;;2.30;1.02;;;9.10;99.90;;;;;;5125336;27;20445;-76
2023/06/02 01:41:25;;;;;;;0.00;0.00;;;9.10;99.90;;;;;;5125119;27;20047;-76
2023/06/02 01:43:52;;;;;;;0.00;0.00;;;9.00;99.90;;;;;;5125425;27;20516;-76
2023/06/02 01:46:18;;;;;;;1.90;1.02;;;9.10;99.90;;;;;;5125659;27;20498;-76
2023/06/02 01:48:43;;;;;;;1.35;0.70;;;9.00;99.90;;;;;;5125649;27;20145;-76
2023/06/02 01:51:09;;;;;;;0.10;0.10;;;9.10;1.00;;;;;;5125497;27;20039;-76
2023/06/02 01:53:35;;;;;;;0.00;0.00;;;9.10;1.00;;;;;;5125428;27;20039;-76
2023/06/02 01:56:00;;;;;;;0.10;0.10;;;9.10;99.90;;;;;;5125522;27;20043;-76
2023/06/02 01:58:26;;;;;;;0.43;0.03;;;9.10;1.00;;;;;;5125026;27;20502;-76
2023/06/02 02:00:54;;;;;;;2.63;0.52;;;9.10;1.00;;;;;;5125116;27;20535;-77
2023/06/02 02:03:22;;;;;;;0.00;0.00;;;9.00;1.00;;;;;;5125467;27;20519;-76
2023/06/02 02:05:47;;;;;;;0.00;0.00;;;9.10;1.00;;;;;;5126050;27;20062;-76
2023/06/02 02:08:13;;;;;;;0.82;0.60;;;9.10;1.00;;;;;;5125297;27;20054;-76
2023/06/02 02:10:39;;;;;;;0.68;0.50;;;9.20;1.00;;;;;;5123670;27;20042;-77
2023/06/02 02:13:04;;;;;;;0.00;0.00;;;9.30;1.00;;;;;;5103822;28;20181;-76
2023/06/02 02:15:30;;;;;;;0.17;0.17;;;9.30;1.00;;;;;;5110036;27;20095;-75
2023/06/02 02:17:59;;;;;;;0.73;0.60;;;9.30;1.00;;;;;;5125320;27;20057;-76
2023/06/02 02:20:26;;;;;;;0.00;0.00;;;9.40;1.00;;;;;;5125217;27;20428;-75
2023/06/02 02:22:52;;;;;;;2.15;1.58;;;9.40;1.00;;;;;;5125190;27;20043;-76
2023/06/02 02:25:17;;;;;;;1.45;1.25;;;9.40;1.00;;;;;;5125223;27;20054;-76
2023/06/02 02:27:43;;;;;;;0.00;0.00;;;9.50;19.70;;;;;;5124803;27;20043;-77
2023/06/02 02:30:09;;;;;;;0.10;0.10;;;9.50;1.00;;;;;;5107088;27;20481;-76
2023/06/02 02:32:41;;;;;;;0.20;0.20;;;9.50;81.60;;;;;;5125318;27;20047;-76
2023/06/02 02:35:07;;;;;;;0.00;0.00;;;9.50;1.00;;;;;;5124694;27;20046;-76
2023/06/02 02:37:33;;;;;;;1.45;0.13;;;9.50;1.00;;;;;;5124789;27;20062;-76
2023/06/02 02:39:59;;;;;;;0.55;0.25;;;9.50;1.00;;;;;;5124337;27;20566;-77
2023/06/02 02:42:25;;;;;;;0.00;0.00;;;9.60;99.90;;;;;;5124722;27;20436;-76
2023/06/02 02:44:51;;;;;;;0.65;0.65;;;9.60;99.90;;;;;;5123956;27;20055;-76
2023/06/02 02:47:16;;;;;;;1.45;0.55;;;9.60;99.90;;;;;;5124447;27;20049;-75
2023/06/02 02:49:42;;;;;;;0.52;0.32;;;9.60;99.90;;;;;;5124333;27;20425;-76
2023/06/02 02:52:07;;;;;;;0.00;0.00;;;9.60;99.90;;;;;;5124471;28;20043;-76
2023/06/02 02:54:33;;;;;;;0.20;0.20;;;9.60;99.90;;;;;;5124565;28;20450;-76
2023/06/02 02:57:00;;;;;;;0.00;0.00;;;9.70;99.90;;;;;;5124748;28;20046;-76
2023/06/02 02:59:26;;;;;;;1.45;1.13;;;9.80;99.90;;;;;;5124502;27;20095;-76
2023/06/02 03:01:51;;;;;;;0.00;0.00;;;9.70;99.90;;;;;;5106539;28;20413;-76
2023/06/02 03:04:22;;;;;;;0.45;0.30;;;9.70;99.90;;;;;;5124505;28;20402;-77
2023/06/02 03:06:49;;;;;;;0.60;0.60;;;9.70;99.90;;;;;;5124917;28;20476;-76
2023/06/02 03:09:18;;;;;;;0.20;0.17;;;9.70;99.90;;;;;;5124315;28;20051;-77
2023/06/02 03:11:45;;;;;;;2.83;0.17;;;9.70;18.10;;;;;;5124188;28;20054;-77
2023/06/02 03:14:11;;;;;;;0.20;0.15;;;9.80;99.90;;;;;;5126170;27;20051;-77
2023/06/02 03:16:46;;;;;;;0.32;0.30;;;9.70;40.60;;;;;;5128749;27;20058;-76
2023/06/02 03:19:15;;;;;;;0.30;0.13;;;9.80;99.90;;;;;;5128446;27;20985;-76
2023/06/02 03:21:44;;;;;;;0.32;0.32;;;9.80;99.90;;;;;;5128477;27;20047;-76
2023/06/02 03:24:15;;;;;;;0.68;0.68;;;9.80;99.90;;;;;;5128024;27;20459;-76
2023/06/02 03:26:41;;;;;;;0.00;0.00;;;9.80;99.90;;;;;;5128635;27;20039;-76
2023/06/02 03:29:08;;;;;;;0.00;0.00;;;10.00;99.90;;;;;;5128259;27;20129;-76
2023/06/02 03:31:35;;;;;;;0.38;0.38;;;9.90;99.90;;;;;;5128548;27;20047;-76
2023/06/02 03:34:01;;;;;;;18.42;0.90;;;9.90;99.90;;;;;;5110089;27;20047;-76
2023/06/02 03:36:27;;;;;;;0.00;0.00;;;9.90;99.90;;;;;;5128608;27;20050;-76
2023/06/02 03:38:53;;;;;;;1.00;0.43;;;9.90;99.90;;;;;;5128271;27;20455;-76
2023/06/02 03:41:18;;;;;;;0.00;0.00;;;9.90;99.90;;;;;;5127889;27;20086;-76
2023/06/02 03:43:44;;;;;;;2.83;0.85;;;10.00;99.90;;;;;;5128633;27;20099;-76
2023/06/02 03:46:10;;;;;;;0.50;0.50;;;10.00;1.00;;;;;;5128040;27;20099;-76
2023/06/02 03:48:35;;;;;;;0.00;0.00;;;10.00;99.90;;;;;;5127946;27;20409;-76
2023/06/02 03:51:01;;;;;;;1.90;1.20;;;10.00;99.90;;;;;;5128142;27;20046;-76
2023/06/02 03:53:27;;;;;;;0.28;0.17;;;10.00;99.90;;;;;;5127534;27;20139;-76
2023/06/02 03:55:52;;;;;;;3.47;0.38;;;10.10;99.90;;;;;;5128090;27;20053;-77
2023/06/02 03:58:19;;;;;;;0.00;0.00;;;10.10;99.90;;;;;;5127739;27;20050;-79
2023/06/02 04:00:46;;;;;;;4.82;2.17;;;10.10;99.90;;;;;;5109439;27;20058;-76
2023/06/02 04:03:12;;;;;;;1.08;0.45;;;10.20;99.90;;;;;;5128097;27;20049;-76
2023/06/02 04:05:37;;;;;;;5.47;1.25;;;10.20;99.90;;;;;;5127970;27;20051;-78
2023/06/02 04:08:03;;;;;;;0.10;0.10;;;10.20;99.90;;;;;;5127428;27;20473;-76
2023/06/02 04:10:30;;;;;;;0.63;0.63;;;10.20;99.90;;;;;;5127536;27;20116;-77
2023/06/02 04:12:56;;;;;;;0.10;0.10;;;10.30;99.90;;;;;;5127267;27;20314;-76
2023/06/02 04:15:22;;;;;;;0.00;0.00;;;10.30;99.90;;;;;;5127118;27;20050;-76
2023/06/02 04:17:47;;;;;;;0.20;0.20;;;10.50;99.90;;;;;;5127410;27;20055;-77
2023/06/02 04:20:13;;;;;;;3.13;1.33;;;10.40;99.90;;;;;;5127336;27;20039;-76
2023/06/02 04:22:39;;;;;;;0.28;0.28;;;10.40;99.90;;;;;;5127807;27;20051;-76
2023/06/02 04:25:05;;;;;;;0.40;0.40;;;10.50;99.90;;;;;;5126608;27;20082;-76
2023/06/02 04:27:31;;;;;;;0.00;0.00;;;10.50;99.90;;;;;;5108530;27;20050;-76
2023/06/02 04:29:58;;;;;;;0.22;0.20;;;10.50;99.90;;;;;;5126974;27;20046;-77
2023/06/02 04:32:24;;;;;;;0.90;0.45;;;10.60;1.00;;;;;;5126914;27;20439;-76
2023/06/02 04:34:50;;;;;;;1.35;0.90;;;10.70;99.90;;;;;;5126674;27;20035;-76
2023/06/02 04:37:16;;;;;;;0.00;0.00;;;10.70;31.80;;;;;;5127044;27;20043;-77
2023/06/02 04:39:46;;;;;;;0.55;0.55;;;10.70;99.90;;;;;;5127051;27;20046;-76
2023/06/02 04:42:13;;;;;;;0.63;0.22;;;10.80;99.90;;;;;;5126666;27;20141;-76
2023/06/02 04:44:39;;;;;;;0.00;0.00;;;10.80;99.90;;;;;;5126784;27;20536;-77
2023/06/02 04:47:05;;;;;;;1.20;0.75;;;10.90;99.90;;;;;;5126781;27;20408;-76
2023/06/02 04:49:31;;;;;;;0.20;0.20;;;10.90;99.90;;;;;;5126195;27;20043;-76
2023/06/02 04:51:57;;;;;;;4.97;1.15;;;11.00;99.90;;;;;;5126312;27;20443;-76
2023/06/02 04:54:23;;;;;;;1.55;0.43;;;11.00;90.30;;;;;;5126223;27;20050;-76
2023/06/02 04:56:49;;;;;;;3.30;1.10;;;11.10;68.80;;;;;;5126425;27;20039;-76
2023/06/02 04:59:14;;;;;;;0.15;0.15;;;11.50;99.90;;;;;;5125789;27;20091;-76
2023/06/02 05:01:40;;;;;;;0.08;0.05;;;11.20;76.20;;;;;;5126340;27;20122;-76
2023/06/02 05:04:06;;;;;;;0.00;0.00;;;11.20;1.00;;;;;;5126412;27;20405;-77
2023/06/02 05:06:31;;;;;;;0.08;0.08;;;11.20;99.90;;;;;;5126215;27;20126;-77
2023/06/02 05:08:57;;;;;;;1.05;0.43;;;11.30;1.00;;;;;;5126615;27;20047;-75
2023/06/02 05:11:23;;;;;;;5.97;1.27;;;11.30;1.00;;;;;;5126095;27;20427;-76
2023/06/02 05:13:49;;;;;;;6.07;0.30;;;11.40;1.00;;;;;;5125878;27;20168;-76
2023/06/02 05:16:14;;;;;;;0.00;0.00;;;11.40;1.00;;;;;;5108489;27;20047;-76
2023/06/02 05:18:40;;;;;;;0.15;0.15;;;11.50;99.90;;;;;;5126909;27;20041;-77
2023/06/02 05:21:06;;;;;;;9.73;1.75;;;11.60;99.90;;;;;;5126479;27;20132;-76
2023/06/02 05:23:31;;;;;;;0.30;0.28;;;11.70;99.90;;;;;;5127188;27;20828;-77
2023/06/02 05:25:57;;;;;;;0.08;0.00;;;11.80;99.90;;;;;;5126438;27;20035;-77
2023/06/02 05:28:23;;;;;;;0.00;0.00;;;11.90;68.70;;;;;;5124243;27;20039;-76
2023/06/02 05:30:48;;;;;;;0.60;0.60;;;11.90;1.00;;;;;;5124296;27;20047;-76
2023/06/02 05:33:14;;;;;;;1.23;1.13;;;12.00;1.00;;;;;;5124204;27;20114;-76
2023/06/02 05:35:39;;;;;;;0.47;0.30;;;12.10;1.00;;;;;;5124193;27;20404;-76
2023/06/02 05:38:05;;;;;;;0.00;0.00;;;12.10;99.90;;;;;;5123741;27;20481;-76
2023/06/02 05:40:31;;;;;;;0.03;0.03;;;12.20;99.90;;;;;;5124013;27;20039;-76
2023/06/02 05:42:56;;;;;;;6.40;1.60;;;12.40;99.90;;;;;;5123843;27;20155;-77
2023/06/02 05:45:22;;;;;;;0.70;0.68;;;12.50;99.90;;;;;;5123901;27;20047;-76
2023/06/02 05:47:50;;;;;;;0.05;0.05;;;12.50;1.00;;;;;;5123632;27;20047;-76
2023/06/02 05:50:16;;;;;;;2.25;0.63;;;12.60;99.90;;;;;;5124079;27;20118;-76
2023/06/02 05:52:41;;;;;;;0.63;0.47;;;12.70;1.00;;;;;;5124053;27;20624;-76
2023/06/02 05:55:07;;;;;;;0.35;0.30;;;12.80;1.00;;;;;;5123363;27;20035;-76
2023/06/02 05:57:33;;;;;;;1.35;1.25;;;12.90;1.00;;;;;;5123898;27;20126;-76
2023/06/02 05:59:59;;;;;;;0.00;0.00;;;13.00;99.90;;;;;;5123394;27;20043;-76
2023/06/02 06:02:24;;;;;;;0.03;0.03;;;13.10;99.90;;;;;;5123254;27;20039;-76
2023/06/02 06:04:50;;;;;;;0.32;0.32;;;13.30;99.90;;;;;;5123412;27;20043;-76
2023/06/02 06:07:16;;;;;;;0.10;0.10;;;13.50;99.90;;;;;;5123676;27;20043;-76
2023/06/02 06:09:41;;;;;;;0.03;0.03;;;13.70;66.10;;;;;;5123182;27;20070;-76
2023/06/02 06:12:07;;;;;;;0.32;0.25;;;13.80;99.90;;;;;;5123852;27;20055;-77
2023/06/02 06:14:33;;;;;;;0.10;0.10;;;13.90;99.90;;;;;;5122900;27;20122;-77
2023/06/02 06:17:00;;;;;;;1.63;1.05;;;13.90;91.30;;;;;;5123040;27;20046;-77
2023/06/02 06:19:25;;;;;;;0.73;0.50;;;13.90;99.90;;;;;;5123155;27;20146;-77
2023/06/02 06:21:51;;;;;;;0.80;0.80;;;14.10;99.90;;;;;;5123007;27;20462;-77
2023/06/02 06:24:17;;;;;;;0.25;0.20;;;14.30;72.90;;;;;;5105110;27;20050;-77
2023/06/02 06:26:42;;;;;;;2.72;1.08;;;14.60;1.00;;;;;;5123317;27;20116;-77
2023/06/02 06:29:10;;;;;;;0.30;0.30;;;14.90;99.90;;;;;;5122762;27;20042;-77
2023/06/02 06:31:35;;;;;;;0.95;0.65;;;15.20;99.90;;;;;;5122962;27;20087;-77
2023/06/02 06:34:02;;;;;;;5.38;1.23;;;15.30;99.90;;;;;;5123245;27;20443;-77
2023/06/02 06:36:28;;;;;;;0.98;0.75;;;15.50;99.90;;;;;;5123173;27;20587;-77
2023/06/02 06:38:53;;;;;;;0.03;0.03;;;15.60;99.90;;;;;;5123124;27;20039;-77
2023/06/02 06:41:20;;;;;;;0.10;0.10;;;15.70;99.90;;;;;;5123043;27;20119;-77
2023/06/02 06:43:46;;;;;;;0.05;0.05;;;16.20;75.40;;;;;;5122991;27;20074;-77
2023/06/02 06:46:13;;;;;;;0.30;0.30;;;16.40;1.00;;;;;;5104064;28;20485;-77
2023/06/02 06:48:39;;;;;;;0.60;0.40;;;16.70;1.00;;;;;;5122281;27;20143;-77
2023/06/02 06:51:04;;;;;;;0.00;0.00;;;17.10;1.00;;;;;;5122955;27;20478;-77
2023/06/02 06:53:30;;;;;;;0.82;0.30;;;18.00;99.90;;;;;;5122948;28;20047;-77
2023/06/02 06:55:56;;;;;;;0.00;0.00;;;18.00;99.90;;;;;;5122867;28;20096;-77
2023/06/02 06:58:21;;;;;;;9.75;1.35;;;18.50;99.90;;;;;;5123340;27;20047;-77
2023/06/02 07:00:47;;;;;;;0.52;0.50;;;18.30;99.90;;;;;;5104559;28;20493;-77
2023/06/02 07:03:12;;;;;;;0.32;0.30;;;18.00;99.90;;;;;;5122980;28;20600;-77
2023/06/02 07:05:38;;;;;;;0.10;0.10;;;17.80;99.90;;;;;;5122762;28;20072;-77
2023/06/02 07:08:04;;;;;;;0.47;0.47;;;17.60;99.90;;;;;;5122821;28;20054;-77
2023/06/02 07:10:30;;;;;;;0.43;0.43;;;17.10;99.90;;;;;;5122450;28;20043;-77
2023/06/02 07:12:55;;;;;;;0.20;0.20;;;16.90;99.90;;;;;;5122920;28;20134;-77
2023/06/02 07:15:21;;;;;;;0.05;0.05;;;17.00;99.90;;;;;;5122161;28;20058;-77
2023/06/02 07:17:46;;;;;;;0.73;0.57;;;17.80;99.90;;;;;;5122812;28;20582;-77
2023/06/02 07:20:12;;;;;;;0.43;0.43;;;18.30;99.90;;;;;;5122499;28;20505;-77
2023/06/02 07:22:39;;;;;;;1.85;1.25;;;18.30;99.90;;;;;;5122602;28;20043;-77
2023/06/02 07:25:05;;;;;;;10.27;0.70;;;19.10;99.90;;;;;;5122427;28;20093;-77
2023/06/02 07:27:31;;;;;;;1.65;0.90;;;20.60;99.90;;;;;;5122323;28;20049;-77
2023/06/02 07:29:57;;;;;;;1.50;0.75;;;20.90;99.90;;;;;;5122516;28;20076;-77
2023/06/02 07:32:23;;;;;;;0.30;0.30;;;21.70;99.90;;;;;;5122679;28;20051;-77
2023/06/02 07:34:49;;;;;;;0.68;0.60;;;21.60;99.90;;;;;;5122270;28;20126;-77
2023/06/02 07:37:14;;;;;;;2.40;0.98;;;21.30;99.90;;;;;;5122532;28;20044;-77
2023/06/02 07:39:40;;;;;;;0.52;0.52;;;21.90;99.90;;;;;;5122251;28;20510;-74
2023/06/02 07:42:06;;;;;;;0.98;0.90;;;22.40;99.90;;;;;;5122134;28;20047;-74
2023/06/02 07:44:32;;;;;;;0.28;0.28;;;22.90;99.90;;;;;;5121838;28;20464;-74
2023/06/02 07:46:58;;;;;;;0.45;0.45;;;22.20;99.90;;;;;;5122490;28;20039;-76
2023/06/02 07:49:24;;;;;;;3.00;1.17;;;21.50;99.90;;;;;;5122750;28;20545;-77
2023/06/02 07:51:50;;;;;;;0.47;0.43;;;21.30;99.90;;;;;;5122221;28;20070;-77
2023/06/02 07:54:15;;;;;;;1.65;0.60;;;21.90;99.90;;;;;;5122067;28;20662;-77
2023/06/02 07:56:41;;;;;;;0.10;0.10;;;22.60;99.90;;;;;;5122017;28;20047;-77
2023/06/02 07:59:09;;;;;;;4.03;1.75;;;23.00;99.90;;;;;;5121980;27;20497;-77
2023/06/02 08:01:34;;;;;;;14.02;1.23;;;22.30;99.90;;;;;;5125475;27;20047;-77
2023/06/02 08:04:01;;;;;;;0.73;0.40;;;22.10;99.90;;;;;;5126236;27;20079;-77
2023/06/02 08:06:27;;;;;;;1.35;0.73;;;22.10;99.90;;;;;;5107601;27;20055;-77
2023/06/02 08:08:52;;;;;;;0.63;0.38;;;23.20;99.90;;;;;;5126462;27;20062;-77
2023/06/02 08:11:18;;;;;;;0.10;0.00;;;24.40;99.90;;;;;;5125895;27;20050;-75
2023/06/02 08:13:44;;;;;;;2.75;1.77;;;24.30;99.90;;;;;;5125442;27;20061;-76
2023/06/02 08:16:10;;;;;;;1.73;0.60;;;23.90;99.90;;;;;;5125955;27;20050;-77
2023/06/02 08:18:35;;;;;;;1.02;0.45;;;24.70;99.90;;;;;;5126005;27;20050;-77
2023/06/02 08:21:01;;;;;;;1.23;0.57;;;25.50;99.90;;;;;;5125730;27;20806;-75
2023/06/02 08:23:27;;;;;;;0.28;0.28;;;25.80;99.90;;;;;;5125524;27;20125;-74
2023/06/02 08:25:54;;;;;;;1.02;0.68;;;26.20;99.90;;;;;;5125185;27;20055;-74
2023/06/02 08:28:24;;;;;;;1.55;1.00;;;26.30;99.90;;;;;;5125484;27;20081;-74
2023/06/02 08:30:51;;;;;;;4.47;0.80;;;26.00;99.90;;;;;;5125445;27;20039;-74
2023/06/02 08:33:18;;;;;;;2.17;1.08;;;25.90;99.90;;;;;;5125642;27;20047;-74
2023/06/02 08:35:46;;;;;;;0.08;0.08;;;26.20;99.90;;;;;;5125064;27;20122;-74
2023/06/02 08:38:16;;;;;;;0.03;0.03;;;26.50;99.90;;;;;;5125169;27;20052;-74
2023/06/02 08:40:44;;;;;;;0.82;0.40;;;27.20;99.90;;;;;;5125421;27;20127;-74
2023/06/02 08:43:12;;;;;;;0.38;0.28;;;27.10;99.90;;;;;;5125195;27;20436;-74
2023/06/02 08:45:46;;;;;;;1.50;0.38;;;27.30;99.90;;;;;;5125233;27;20386;-74
2023/06/02 08:48:17;;;;;;;0.63;0.47;;;28.10;99.90;;;;;;5124994;27;20086;-74
2023/06/02 08:50:46;;;;;;;0.77;0.47;;;27.60;99.90;;;;;;5125080;27;20055;-74
2023/06/02 08:53:15;;;;;;;3.60;0.85;;;28.20;99.90;;;;;;5124679;27;20051;-74
2023/06/02 08:55:42;;;;;;;0.00;0.00;;;28.40;99.90;;;;;;5125116;27;20064;-74
2023/06/02 08:58:11;;;;;;;0.50;0.50;;;27.70;99.90;;;;;;5124516;27;20081;-74
2023/06/02 09:00:37;;;;;;;0.17;0.15;;;28.30;99.90;;;;;;5124765;27;20043;-74
2023/06/02 09:03:04;;;;;;;0.00;0.00;;;28.80;99.90;;;;;;5124739;27;20074;-74
2023/06/02 09:05:32;;;;;;;0.38;0.25;;;27.60;99.90;;;;;;5124505;27;20055;-74
2023/06/02 09:08:12;;;;;;;1.48;0.90;;;26.80;99.90;;;;;;5124816;27;20289;-74
2023/06/02 09:10:40;;;;;;;1.27;0.52;;;25.00;90.80;;;;;;5125046;27;20083;-74
2023/06/02 09:13:10;;;;;;;1.10;0.65;;;23.80;64.20;;;;;;5123583;27;20081;-74
2023/06/02 09:15:54;;;;;;;0.00;0.00;;;23.60;61.10;;;;;;5124319;27;20047;-74
2023/06/02 09:18:20;;;;;;;1.05;0.22;;;23.10;65.40;;;;;;5124211;27;20428;-74
2023/06/02 09:20:48;;;;;;;0.10;0.10;;;23.80;82.70;;;;;;5124284;27;20065;-74
2023/06/02 09:23:14;;;;;;;0.05;0.05;;;24.90;99.40;;;;;;5106061;27;20092;-74
2023/06/02 09:25:40;;;;;;;0.00;0.00;;;24.50;88.10;;;;;;5124313;27;20427;-74
2023/06/02 09:28:07;;;;;;;0.00;0.00;;;24.10;81.10;;;;;;5124247;27;20072;-74
2023/06/02 09:30:33;;;;;;;0.28;0.25;;;23.80;77.30;;;;;;5124144;27;20043;-74
2023/06/02 09:33:08;;;;;;;0.00;0.00;;;24.00;69.60;;;;;;5124435;27;20049;-74
2023/06/02 09:35:42;;;;;;;0.30;0.22;;;23.80;66.50;;;;;;5124064;27;20039;-74
2023/06/02 09:38:17;;;;;;;0.00;0.00;;;23.60;61.80;;;;;;5124113;27;20043;-73
2023/06/02 09:40:44;;;;;;;0.00;0.00;;;23.70;60.20;;;;;;5123983;27;20043;-73
2023/06/02 09:43:15;;;;;;;0.17;0.17;;;24.70;90.80;;;;;;5123343;27;20458;-74
2023/06/02 09:45:47;;;;;;;9.20;0.30;;;25.70;99.60;;;;;;5123604;27;20262;-74
2023/06/02 09:48:22;;;;;;;0.10;0.10;;;24.80;84.50;;;;;;5123857;27;20050;-74
2023/06/02 09:50:48;;;;;;;0.00;0.00;;;24.00;67.60;;;;;;5123607;27;20084;-74
2023/06/02 09:53:17;;;;;;;0.00;0.00;;;24.50;85.90;;;;;;5105645;27;20497;-75
2023/06/02 09:55:44;;;;;;;0.10;0.10;;;25.40;96.50;;;;;;5123810;27;20043;-76
2023/06/02 09:58:11;;;;;;;0.00;0.00;;;25.20;92.80;;;;;;5123650;27;20035;-77
2023/06/02 10:00:36;;;;;;;0.03;0.03;;;24.00;67.30;;;;;;5123745;27;20122;-76
2023/06/02 10:03:03;;;;;;;1.85;0.45;;;23.20;44.70;;;;;;5123395;27;20118;-76
2023/06/02 10:05:30;;;;;;;0.00;0.00;;;22.30;27.80;;;;;;5123638;27;20045;-76
2023/06/02 10:08:21;;;;;;;0.20;0.20;;;21.40;13.10;;;;;;5123510;27;20447;-76
2023/06/02 10:10:58;;;;;;;0.60;0.60;;;21.10;9.50;;;;;;5123556;27;20129;-76
2023/06/02 10:13:42;;;;;;;1.25;0.80;;;21.60;22.60;;;;;;5123108;27;20054;-74
2023/06/02 10:16:26;;;;;;;0.35;0.30;;;21.90;26.50;;;;;;5123201;27;20054;-74
2023/06/02 10:19:01;;;;;;;0.05;0.05;;;21.70;21.40;;;;;;5123172;27;20529;-74
2023/06/02 10:21:58;;;;;;;0.20;0.20;;;21.80;21.30;;;;;;5123345;27;20123;-74
2023/06/02 10:24:33;;;;;;;0.05;0.05;;;22.30;36.60;;;;;;5122912;27;20808;-74
2023/06/02 10:27:26;;;;;;;0.03;0.03;;;22.20;30.60;;;;;;5123014;27;20401;-74
2023/06/02 10:29:55;;;;;;;0.40;0.35;;;22.30;24.90;;;;;;5123152;27;20047;-74
2023/06/02 10:32:24;;;;;;;0.40;0.40;;;21.90;17.70;;;;;;5122925;27;20134;-74
2023/06/02 10:34:56;;;;;;;0.13;0.10;;;22.00;21.20;;;;;;5122764;27;20577;-74
2023/06/02 10:37:23;;;;;;;0.03;0.03;;;22.20;14.70;;;;;;5122705;27;20083;-74
2023/06/02 10:39:52;;;;;;;1.00;0.38;;;22.40;18.50;;;;;;5122973;27;20047;-74
2023/06/02 10:42:20;;;;;;;0.00;0.00;;;22.60;21.90;;;;;;5122892;27;20035;-74
2023/06/02 10:44:47;;;;;;;2.38;1.08;;;23.20;31.80;;;;;;5122790;27;20043;-74
2023/06/02 10:47:18;;;;;;;0.10;0.10;;;22.70;12.80;;;;;;5122777;27;20051;-74
2023/06/02 10:50:02;;;;;;;0.40;0.25;;;22.70;10.80;;;;;;5122752;27;20479;-74
2023/06/02 10:52:30;;;;;;;0.85;0.47;;;22.70;7.80;;;;;;5122680;27;20564;-74
2023/06/02 10:55:07;;;;;;;0.20;0.17;;;22.80;8.60;;;;;;5122977;28;20050;-74
2023/06/02 10:58:01;;;;;;;0.00;0.00;;;23.10;18.80;;;;;;5122764;28;20165;-74
2023/06/02 11:00:32;;;;;;;0.25;0.08;;;23.60;26.00;;;;;;5110148;28;20081;-74
2023/06/02 11:03:01;;;;;;;0.28;0.20;;;23.80;23.20;;;;;;5122660;28;20164;-74
2023/06/02 11:05:32;;;;;;;0.40;0.38;;;23.90;17.60;;;;;;5123142;28;20058;-74
2023/06/02 11:08:18;;;;;;;0.13;0.10;;;23.90;18.60;;;;;;5122676;28;20043;-74
2023/06/02 11:10:44;;;;;;;0.40;0.28;;;24.00;4.20;;;;;;5122270;28;20047;-74
2023/06/02 11:13:19;;;;;;;0.00;0.00;;;24.20;4.60;;;;;;5122271;28;20055;-74
2023/06/02 11:15:58;;;;;;;7.53;0.30;;;24.20;1.00;;;;;;5122455;28;20055;-74
2023/06/02 11:18:31;;;;;;;12.65;1.30;;;24.30;1.00;;;;;;5122668;28;20141;-74
2023/06/02 11:21:15;;;;;;;0.10;0.10;;;24.40;1.00;;;;;;5122322;28;20066;-74
2023/06/02 11:23:42;;;;;;;0.20;0.10;;;24.40;6.30;;;;;;5122428;28;20055;-75
2023/06/02 11:26:10;;;;;;;0.22;0.20;;;24.60;11.90;;;;;;5122589;28;20169;-74
2023/06/02 11:28:35;;;;;;;0.20;0.20;;;25.10;22.60;;;;;;5122222;28;20569;-74
2023/06/02 11:31:12;;;;;;;0.08;0.08;;;25.40;29.70;;;;;;5104608;28;20126;-74
2023/06/02 11:33:47;;;;;;;0.00;0.00;;;26.00;45.00;;;;;;5122631;28;20073;-74
2023/06/02 11:36:13;;;;;;;0.40;0.30;;;26.30;48.90;;;;;;5125517;27;20088;-74
2023/06/02 11:38:40;;;;;;;0.03;0.03;;;26.80;58.30;;;;;;5126468;27;20078;-74
2023/06/02 11:41:13;;;;;;;0.00;0.00;;;26.90;69.20;;;;;;5126121;27;20046;-74
2023/06/02 11:43:43;;;;;;;0.20;0.20;;;27.30;71.10;;;;;;5126647;27;20071;-74
2023/06/02 11:46:14;;;;;;;0.00;0.00;;;27.60;72.70;;;;;;5126039;27;20041;-74
2023/06/02 11:48:40;;;;;;;0.10;0.10;;;27.80;70.80;;;;;;5125822;27;20490;-74
2023/06/02 11:51:07;;;;;;;0.45;0.43;;;27.60;65.80;;;;;;5126219;27;20088;-74
2023/06/02 11:53:47;;;;;;;0.57;0.47;;;28.10;80.60;;;;;;5126313;27;20043;-74
2023/06/02 11:56:13;;;;;;;0.63;0.43;;;28.70;80.50;;;;;;5126800;27;20137;-74
2023/06/02 11:58:46;;;;;;;0.25;0.10;;;29.60;80.00;;;;;;5125577;27;20085;-74
2023/06/02 12:01:17;;;;;;;0.30;0.10;;;30.20;96.60;;;;;;5126557;27;20057;-74
2023/06/02 12:04:04;;;;;;;0.10;0.00;;;28.90;70.20;;;;;;5126231;27;20058;-74
2023/06/02 12:06:34;;;;;;;7.93;0.45;;;28.60;59.90;;;;;;5090444;27;20435;-74
2023/06/02 12:09:11;;;;;;;2.20;1.00;;;29.60;91.00;;;;;;5125801;27;20426;-74
2023/06/02 12:11:37;;;;;;;1.90;0.75;;;30.90;99.90;;;;;;5125394;27;20043;-74
2023/06/02 12:14:04;;;;;;;0.15;0.13;;;30.50;91.60;;;;;;5126092;27;20051;-74
2023/06/02 12:16:30;;;;;;;0.00;0.00;;;28.80;60.40;;;;;;5125527;27;20055;-74
2023/06/02 12:19:20;;;;;;;1.10;0.28;;;26.30;16.30;;;;;;5125451;27;20043;-74
2023/06/02 12:21:53;;;;;;;0.28;0.10;;;25.00;1.00;;;;;;5125575;27;20126;-74
2023/06/02 12:24:38;;;;;;;0.00;0.00;;;24.50;1.00;;;;;;5121136;27;20047;-74
2023/06/02 12:27:05;;;;;;;0.50;0.43;;;25.60;7.70;;;;;;5107633;27;20051;-74
2023/06/02 12:29:31;;;;;;;0.25;0.10;;;27.10;32.30;;;;;;5125401;27;20043;-74
2023/06/02 12:32:01;;;;;;;0.65;0.22;;;27.40;35.90;;;;;;5125368;27;20050;-74
2023/06/02 12:34:30;;;;;;;2.13;0.88;;;26.10;22.00;;;;;;5125616;27;20035;-74
2023/06/02 12:36:56;;;;;;;0.90;0.75;;;24.90;1.00;;;;;;5125257;27;20039;-74
2023/06/02 12:39:22;;;;;;;0.20;0.20;;;24.00;1.00;;;;;;5125113;27;20061;-74
2023/06/02 12:41:47;;;;;;;3.65;0.50;;;24.80;1.00;;;;;;5125277;27;20042;-74
2023/06/02 12:44:13;;;;;;;0.00;0.00;;;25.80;1.00;;;;;;5124926;27;20080;-74
2023/06/02 12:46:39;;;;;;;0.00;0.00;;;25.10;6.10;;;;;;5123718;27;20039;-74
2023/06/02 12:49:05;;;;;;;0.00;0.00;;;24.50;4.20;;;;;;5125333;27;20080;-75
2023/06/02 12:51:33;;;;;;;0.43;0.32;;;23.70;1.00;;;;;;5125221;27;20050;-76
2023/06/02 12:53:59;;;;;;;0.22;0.13;;;23.80;1.00;;;;;;5124961;27;20043;-74
2023/06/02 12:56:25;;;;;;;0.65;0.55;;;23.80;3.30;;;;;;5125209;27;20400;-74